sensor_id;sensor_type;location;lat;lon;timestamp;P1;durP1;ratioP1;P2;durP2;ratioP2
323;SDS011;149;51.094;17.002;2022-09-09T00:00:41;14.00;;;12.53;;
323;SDS011;149;51.094;17.002;2022-09-09T00:03:18;14.33;;;12.83;;
323;SDS011;149;51.094;17.002;2022-09-09T00:05:55;13.87;;;12.30;;
323;SDS011;149;51.094;17.002;2022-09-09T00:11:46;12.37;;;11.13;;
323;SDS011;149;51.094;17.002;2022-09-09T00:14:35;13.97;;;12.57;;
323;SDS011;149;51.094;17.002;2022-09-09T00:17:32;12.85;;;11.73;;
323;SDS011;149;51.094;17.002;2022-09-09T00:20:19;12.10;;;10.90;;
323;SDS011;149;51.094;17.002;2022-09-09T00:22:57;14.83;;;13.33;;
323;SDS011;149;51.094;17.002;2022-09-09T00:25:33;14.60;;;13.20;;
323;SDS011;149;51.094;17.002;2022-09-09T00:28:18;15.63;;;14.13;;
323;SDS011;149;51.094;17.002;2022-09-09T00:30:48;13.67;;;12.33;;
323;SDS011;149;51.094;17.002;2022-09-09T00:33:19;13.50;;;12.10;;
323;SDS011;149;51.094;17.002;2022-09-09T00:35:58;13.35;;;12.05;;
323;SDS011;149;51.094;17.002;2022-09-09T00:38:28;18.38;;;14.50;;
323;SDS011;149;51.094;17.002;2022-09-09T00:43:52;13.13;;;11.83;;
323;SDS011;149;51.094;17.002;2022-09-09T00:46:41;15.70;;;14.23;;
323;SDS011;149;51.094;17.002;2022-09-09T00:49:43;12.63;;;11.53;;
323;SDS011;149;51.094;17.002;2022-09-09T00:58:41;16.10;;;12.53;;
323;SDS011;149;51.094;17.002;2022-09-09T01:01:16;14.27;;;12.88;;
323;SDS011;149;51.094;17.002;2022-09-09T01:03:49;15.68;;;12.45;;
323;SDS011;149;51.094;17.002;2022-09-09T01:06:22;14.65;;;13.25;;
323;SDS011;149;51.094;17.002;2022-09-09T01:09:13;15.43;;;13.93;;
323;SDS011;149;51.094;17.002;2022-09-09T01:14:35;14.53;;;13.13;;
323;SDS011;149;51.094;17.002;2022-09-09T01:22:39;15.18;;;13.77;;
323;SDS011;149;51.094;17.002;2022-09-09T01:25:13;17.08;;;15.27;;
323;SDS011;149;51.094;17.002;2022-09-09T01:27:56;16.15;;;14.55;;
323;SDS011;149;51.094;17.002;2022-09-09T01:30:27;15.88;;;14.23;;
323;SDS011;149;51.094;17.002;2022-09-09T01:32:55;15.18;;;13.70;;
323;SDS011;149;51.094;17.002;2022-09-09T01:38:48;17.20;;;14.70;;
323;SDS011;149;51.094;17.002;2022-09-09T01:41:15;14.57;;;13.07;;
323;SDS011;149;51.094;17.002;2022-09-09T01:43:42;15.98;;;14.48;;
323;SDS011;149;51.094;17.002;2022-09-09T01:46:09;16.15;;;14.55;;
323;SDS011;149;51.094;17.002;2022-09-09T01:48:38;15.88;;;14.38;;
323;SDS011;149;51.094;17.002;2022-09-09T01:51:07;16.20;;;14.48;;
323;SDS011;149;51.094;17.002;2022-09-09T01:53:36;17.25;;;15.45;;
323;SDS011;149;51.094;17.002;2022-09-09T01:56:21;16.73;;;15.10;;
323;SDS011;149;51.094;17.002;2022-09-09T02:04:30;15.55;;;14.15;;
323;SDS011;149;51.094;17.002;2022-09-09T02:09:57;16.75;;;15.00;;
323;SDS011;149;51.094;17.002;2022-09-09T02:12:34;17.35;;;15.65;;
323;SDS011;149;51.094;17.002;2022-09-09T02:15:07;15.35;;;13.82;;
323;SDS011;149;51.094;17.002;2022-09-09T02:17:43;18.08;;;16.20;;
323;SDS011;149;51.094;17.002;2022-09-09T02:20:12;17.60;;;15.90;;
323;SDS011;149;51.094;17.002;2022-09-09T02:22:43;18.98;;;17.08;;
323;SDS011;149;51.094;17.002;2022-09-09T02:25:17;18.70;;;16.60;;
323;SDS011;149;51.094;17.002;2022-09-09T02:27:46;19.17;;;16.45;;
323;SDS011;149;51.094;17.002;2022-09-09T02:30:19;18.58;;;16.67;;
323;SDS011;149;51.094;17.002;2022-09-09T02:32:47;17.40;;;15.70;;
323;SDS011;149;51.094;17.002;2022-09-09T02:35:18;18.00;;;16.20;;
323;SDS011;149;51.094;17.002;2022-09-09T02:37:51;16.88;;;15.30;;
323;SDS011;149;51.094;17.002;2022-09-09T02:40:21;18.38;;;16.48;;
323;SDS011;149;51.094;17.002;2022-09-09T02:42:48;20.15;;;16.05;;
323;SDS011;149;51.094;17.002;2022-09-09T02:45:16;18.38;;;16.67;;
323;SDS011;149;51.094;17.002;2022-09-09T02:48:03;18.30;;;16.48;;
323;SDS011;149;51.094;17.002;2022-09-09T02:50:43;17.15;;;15.60;;
323;SDS011;149;51.094;17.002;2022-09-09T02:53:17;19.92;;;16.90;;
323;SDS011;149;51.094;17.002;2022-09-09T02:55:48;17.38;;;15.45;;
323;SDS011;149;51.094;17.002;2022-09-09T02:58:21;18.30;;;16.52;;
323;SDS011;149;51.094;17.002;2022-09-09T03:00:49;18.15;;;16.35;;
323;SDS011;149;51.094;17.002;2022-09-09T03:03:18;18.23;;;16.33;;
323;SDS011;149;51.094;17.002;2022-09-09T03:05:46;17.60;;;15.73;;
323;SDS011;149;51.094;17.002;2022-09-09T03:08:16;18.35;;;16.30;;
323;SDS011;149;51.094;17.002;2022-09-09T03:10:43;16.58;;;14.98;;
323;SDS011;149;51.094;17.002;2022-09-09T03:13:10;17.02;;;15.32;;
323;SDS011;149;51.094;17.002;2022-09-09T03:15:39;17.42;;;15.75;;
323;SDS011;149;51.094;17.002;2022-09-09T03:18:06;20.95;;;15.80;;
323;SDS011;149;51.094;17.002;2022-09-09T03:20:34;18.08;;;16.17;;
323;SDS011;149;51.094;17.002;2022-09-09T03:23:02;16.33;;;14.73;;
323;SDS011;149;51.094;17.002;2022-09-09T03:25:30;16.63;;;15.02;;
323;SDS011;149;51.094;17.002;2022-09-09T03:27:57;19.67;;;16.95;;
323;SDS011;149;51.094;17.002;2022-09-09T03:30:24;18.60;;;16.80;;
323;SDS011;149;51.094;17.002;2022-09-09T03:32:53;18.65;;;16.75;;
323;SDS011;149;51.094;17.002;2022-09-09T03:35:21;16.60;;;14.90;;
323;SDS011;149;51.094;17.002;2022-09-09T03:37:48;19.38;;;14.48;;
323;SDS011;149;51.094;17.002;2022-09-09T03:40:15;18.25;;;16.27;;
323;SDS011;149;51.094;17.002;2022-09-09T03:42:42;18.38;;;16.58;;
323;SDS011;149;51.094;17.002;2022-09-09T03:45:09;19.33;;;16.73;;
323;SDS011;149;51.094;17.002;2022-09-09T03:47:37;17.25;;;15.43;;
323;SDS011;149;51.094;17.002;2022-09-09T03:50:05;16.23;;;14.60;;
323;SDS011;149;51.094;17.002;2022-09-09T03:52:36;17.42;;;15.63;;
323;SDS011;149;51.094;17.002;2022-09-09T03:55:04;17.02;;;15.23;;
323;SDS011;149;51.094;17.002;2022-09-09T03:57:33;16.00;;;14.50;;
323;SDS011;149;51.094;17.002;2022-09-09T04:00:05;16.63;;;14.93;;
323;SDS011;149;51.094;17.002;2022-09-09T04:02:33;16.10;;;14.45;;
323;SDS011;149;51.094;17.002;2022-09-09T04:05:01;20.30;;;16.00;;
323;SDS011;149;51.094;17.002;2022-09-09T04:07:28;17.75;;;15.95;;
323;SDS011;149;51.094;17.002;2022-09-09T04:09:55;18.00;;;16.20;;
323;SDS011;149;51.094;17.002;2022-09-09T04:12:22;17.40;;;15.75;;
323;SDS011;149;51.094;17.002;2022-09-09T04:14:49;18.90;;;15.18;;
323;SDS011;149;51.094;17.002;2022-09-09T04:17:15;17.55;;;15.80;;
323;SDS011;149;51.094;17.002;2022-09-09T04:19:43;17.10;;;15.50;;
323;SDS011;149;51.094;17.002;2022-09-09T04:22:10;17.70;;;15.90;;
323;SDS011;149;51.094;17.002;2022-09-09T04:24:37;20.35;;;17.10;;
323;SDS011;149;51.094;17.002;2022-09-09T04:27:04;17.50;;;15.25;;
323;SDS011;149;51.094;17.002;2022-09-09T04:29:31;19.35;;;17.27;;
323;SDS011;149;51.094;17.002;2022-09-09T04:31:59;16.90;;;14.93;;
323;SDS011;149;51.094;17.002;2022-09-09T04:34:27;18.33;;;16.40;;
323;SDS011;149;51.094;17.002;2022-09-09T04:36:54;19.08;;;16.08;;
323;SDS011;149;51.094;17.002;2022-09-09T04:39:21;18.13;;;15.07;;
323;SDS011;149;51.094;17.002;2022-09-09T04:41:48;16.65;;;15.10;;
323;SDS011;149;51.094;17.002;2022-09-09T04:44:16;18.20;;;16.40;;
323;SDS011;149;51.094;17.002;2022-09-09T04:46:45;20.73;;;17.98;;
323;SDS011;149;51.094;17.002;2022-09-09T04:49:12;28.92;;;18.60;;
323;SDS011;149;51.094;17.002;2022-09-09T04:51:40;20.60;;;18.20;;
323;SDS011;149;51.094;17.002;2022-09-09T04:54:07;20.50;;;18.17;;
323;SDS011;149;51.094;17.002;2022-09-09T04:56:34;18.90;;;17.05;;
323;SDS011;149;51.094;17.002;2022-09-09T04:59:02;26.73;;;20.08;;
323;SDS011;149;51.094;17.002;2022-09-09T05:01:29;29.20;;;26.20;;
323;SDS011;149;51.094;17.002;2022-09-09T05:03:56;25.42;;;22.70;;
323;SDS011;149;51.094;17.002;2022-09-09T05:06:23;25.42;;;21.00;;
323;SDS011;149;51.094;17.002;2022-09-09T05:08:51;32.60;;;22.40;;
323;SDS011;149;51.094;17.002;2022-09-09T05:11:24;26.08;;;20.45;;
323;SDS011;149;51.094;17.002;2022-09-09T05:13:53;24.63;;;21.83;;
323;SDS011;149;51.094;17.002;2022-09-09T05:16:22;35.60;;;23.40;;
323;SDS011;149;51.094;17.002;2022-09-09T05:18:50;22.23;;;19.80;;
323;SDS011;149;51.094;17.002;2022-09-09T05:21:17;23.67;;;20.80;;
323;SDS011;149;51.094;17.002;2022-09-09T05:23:46;21.17;;;18.35;;
323;SDS011;149;51.094;17.002;2022-09-09T05:26:18;19.63;;;17.73;;
323;SDS011;149;51.094;17.002;2022-09-09T05:28:46;20.05;;;18.15;;
323;SDS011;149;51.094;17.002;2022-09-09T05:31:13;22.73;;;19.67;;
323;SDS011;149;51.094;17.002;2022-09-09T05:33:43;22.40;;;20.00;;
323;SDS011;149;51.094;17.002;2022-09-09T05:36:13;23.83;;;20.27;;
323;SDS011;149;51.094;17.002;2022-09-09T05:38:42;26.73;;;23.13;;
323;SDS011;149;51.094;17.002;2022-09-09T05:41:10;23.70;;;21.30;;
323;SDS011;149;51.094;17.002;2022-09-09T05:43:38;24.50;;;20.40;;
323;SDS011;149;51.094;17.002;2022-09-09T05:46:06;22.40;;;20.10;;
323;SDS011;149;51.094;17.002;2022-09-09T05:48:35;25.67;;;20.57;;
323;SDS011;149;51.094;17.002;2022-09-09T05:51:05;27.93;;;19.50;;
323;SDS011;149;51.094;17.002;2022-09-09T05:53:34;17.97;;;16.27;;
323;SDS011;149;51.094;17.002;2022-09-09T05:56:05;16.57;;;14.90;;
323;SDS011;149;51.094;17.002;2022-09-09T05:58:36;18.73;;;12.83;;
323;SDS011;149;51.094;17.002;2022-09-09T06:01:08;13.73;;;11.93;;
323;SDS011;149;51.094;17.002;2022-09-09T06:03:37;11.07;;;9.93;;
323;SDS011;149;51.094;17.002;2022-09-09T06:06:09;9.40;;;8.53;;
323;SDS011;149;51.094;17.002;2022-09-09T06:08:51;10.43;;;9.33;;
323;SDS011;149;51.094;17.002;2022-09-09T06:11:21;8.17;;;7.47;;
323;SDS011;149;51.094;17.002;2022-09-09T06:13:49;7.40;;;6.73;;
323;SDS011;149;51.094;17.002;2022-09-09T06:16:23;6.17;;;5.57;;
323;SDS011;149;51.094;17.002;2022-09-09T06:18:53;7.67;;;6.97;;
323;SDS011;149;51.094;17.002;2022-09-09T06:21:22;8.27;;;6.27;;
323;SDS011;149;51.094;17.002;2022-09-09T06:23:53;7.80;;;5.53;;
323;SDS011;149;51.094;17.002;2022-09-09T06:26:26;7.03;;;5.70;;
323;SDS011;149;51.094;17.002;2022-09-09T06:28:58;6.50;;;5.40;;
323;SDS011;149;51.094;17.002;2022-09-09T06:31:26;7.43;;;5.70;;
323;SDS011;149;51.094;17.002;2022-09-09T06:33:57;5.20;;;4.80;;
323;SDS011;149;51.094;17.002;2022-09-09T06:36:26;10.97;;;4.70;;
323;SDS011;149;51.094;17.002;2022-09-09T06:38:54;6.93;;;4.67;;
323;SDS011;149;51.094;17.002;2022-09-09T06:41:24;10.50;;;4.87;;
323;SDS011;149;51.094;17.002;2022-09-09T06:43:53;12.03;;;5.20;;
323;SDS011;149;51.094;17.002;2022-09-09T06:46:25;6.60;;;4.50;;
323;SDS011;149;51.094;17.002;2022-09-09T06:48:54;6.47;;;4.10;;
323;SDS011;149;51.094;17.002;2022-09-09T06:51:34;4.27;;;3.87;;
323;SDS011;149;51.094;17.002;2022-09-09T06:54:02;4.83;;;3.97;;
323;SDS011;149;51.094;17.002;2022-09-09T06:56:33;4.53;;;4.13;;
323;SDS011;149;51.094;17.002;2022-09-09T06:59:07;10.10;;;4.67;;
323;SDS011;149;51.094;17.002;2022-09-09T07:01:36;10.40;;;4.00;;
323;SDS011;149;51.094;17.002;2022-09-09T07:04:06;4.50;;;3.13;;
323;SDS011;149;51.094;17.002;2022-09-09T07:06:36;5.50;;;3.60;;
323;SDS011;149;51.094;17.002;2022-09-09T07:09:06;3.80;;;3.47;;
323;SDS011;149;51.094;17.002;2022-09-09T07:11:44;3.93;;;3.47;;
323;SDS011;149;51.094;17.002;2022-09-09T07:14:15;2.70;;;2.50;;
323;SDS011;149;51.094;17.002;2022-09-09T07:16:43;5.50;;;2.70;;
323;SDS011;149;51.094;17.002;2022-09-09T07:19:11;3.73;;;3.40;;
323;SDS011;149;51.094;17.002;2022-09-09T07:21:38;10.63;;;3.27;;
323;SDS011;149;51.094;17.002;2022-09-09T07:24:09;3.13;;;2.80;;
323;SDS011;149;51.094;17.002;2022-09-09T07:26:39;5.03;;;3.03;;
323;SDS011;149;51.094;17.002;2022-09-09T07:29:08;4.33;;;2.63;;
323;SDS011;149;51.094;17.002;2022-09-09T07:31:36;5.33;;;2.37;;
323;SDS011;149;51.094;17.002;2022-09-09T07:34:05;2.27;;;2.00;;
323;SDS011;149;51.094;17.002;2022-09-09T07:36:34;4.27;;;3.23;;
323;SDS011;149;51.094;17.002;2022-09-09T07:39:04;3.47;;;3.23;;
323;SDS011;149;51.094;17.002;2022-09-09T07:41:40;2.40;;;2.20;;
323;SDS011;149;51.094;17.002;2022-09-09T07:44:12;2.20;;;2.00;;
323;SDS011;149;51.094;17.002;2022-09-09T07:46:42;2.10;;;2.00;;
323;SDS011;149;51.094;17.002;2022-09-09T07:49:11;2.60;;;2.40;;
323;SDS011;149;51.094;17.002;2022-09-09T07:51:39;2.73;;;1.90;;
323;SDS011;149;51.094;17.002;2022-09-09T07:54:11;2.23;;;1.60;;
323;SDS011;149;51.094;17.002;2022-09-09T07:56:39;2.80;;;2.10;;
323;SDS011;149;51.094;17.002;2022-09-09T07:59:07;3.07;;;1.77;;
323;SDS011;149;51.094;17.002;2022-09-09T08:01:37;1.97;;;1.77;;
323;SDS011;149;51.094;17.002;2022-09-09T08:04:07;9.20;;;2.87;;
323;SDS011;149;51.094;17.002;2022-09-09T08:06:37;4.33;;;2.00;;
323;SDS011;149;51.094;17.002;2022-09-09T08:09:06;3.63;;;2.60;;
323;SDS011;149;51.094;17.002;2022-09-09T08:11:35;1.93;;;1.73;;
323;SDS011;149;51.094;17.002;2022-09-09T08:14:04;2.47;;;1.70;;
323;SDS011;149;51.094;17.002;2022-09-09T08:16:37;2.37;;;2.20;;
323;SDS011;149;51.094;17.002;2022-09-09T08:19:10;5.50;;;1.90;;
323;SDS011;149;51.094;17.002;2022-09-09T08:21:37;3.40;;;2.33;;
323;SDS011;149;51.094;17.002;2022-09-09T08:24:06;2.27;;;1.60;;
323;SDS011;149;51.094;17.002;2022-09-09T08:26:36;1.47;;;1.37;;
323;SDS011;149;51.094;17.002;2022-09-09T08:29:05;3.80;;;1.77;;
323;SDS011;149;51.094;17.002;2022-09-09T08:31:37;3.10;;;2.00;;
323;SDS011;149;51.094;17.002;2022-09-09T08:34:05;2.03;;;1.93;;
323;SDS011;149;51.094;17.002;2022-09-09T08:36:34;5.30;;;2.10;;
323;SDS011;149;51.094;17.002;2022-09-09T08:39:05;2.77;;;1.90;;
323;SDS011;149;51.094;17.002;2022-09-09T08:49:54;2.53;;;2.20;;
323;SDS011;149;51.094;17.002;2022-09-09T08:52:26;2.90;;;1.47;;
323;SDS011;149;51.094;17.002;2022-09-09T08:55:01;4.07;;;1.60;;
323;SDS011;149;51.094;17.002;2022-09-09T08:57:36;1.57;;;1.47;;
323;SDS011;149;51.094;17.002;2022-09-09T09:00:03;3.50;;;1.50;;
323;SDS011;149;51.094;17.002;2022-09-09T09:02:34;1.90;;;1.80;;
323;SDS011;149;51.094;17.002;2022-09-09T09:05:19;2.10;;;1.90;;
323;SDS011;149;51.094;17.002;2022-09-09T09:07:55;1.80;;;1.70;;
323;SDS011;149;51.094;17.002;2022-09-09T09:10:48;4.23;;;2.30;;
323;SDS011;149;51.094;17.002;2022-09-09T09:13:18;1.93;;;1.60;;
323;SDS011;149;51.094;17.002;2022-09-09T09:16:27;2.03;;;1.50;;
323;SDS011;149;51.094;17.002;2022-09-09T09:19:00;1.87;;;1.57;;
323;SDS011;149;51.094;17.002;2022-09-09T09:21:37;1.20;;;1.10;;
323;SDS011;149;51.094;17.002;2022-09-09T09:24:20;2.60;;;1.67;;
323;SDS011;149;51.094;17.002;2022-09-09T09:26:54;3.53;;;1.83;;
323;SDS011;149;51.094;17.002;2022-09-09T09:29:23;7.50;;;1.60;;
323;SDS011;149;51.094;17.002;2022-09-09T09:31:53;2.30;;;2.13;;
323;SDS011;149;51.094;17.002;2022-09-09T09:34:23;1.87;;;1.77;;
323;SDS011;149;51.094;17.002;2022-09-09T09:36:58;2.03;;;1.80;;
323;SDS011;149;51.094;17.002;2022-09-09T09:39:33;2.33;;;1.90;;
323;SDS011;149;51.094;17.002;2022-09-09T09:42:25;3.30;;;1.97;;
323;SDS011;149;51.094;17.002;2022-09-09T09:44:51;1.70;;;1.60;;
323;SDS011;149;51.094;17.002;2022-09-09T09:47:19;1.50;;;1.40;;
323;SDS011;149;51.094;17.002;2022-09-09T09:49:51;1.77;;;1.63;;
323;SDS011;149;51.094;17.002;2022-09-09T09:52:21;3.20;;;2.10;;
323;SDS011;149;51.094;17.002;2022-09-09T09:54:58;3.00;;;1.60;;
323;SDS011;149;51.094;17.002;2022-09-09T09:57:33;2.33;;;1.83;;
323;SDS011;149;51.094;17.002;2022-09-09T10:00:01;4.30;;;2.40;;
323;SDS011;149;51.094;17.002;2022-09-09T10:02:37;8.23;;;2.93;;
323;SDS011;149;51.094;17.002;2022-09-09T10:05:17;2.23;;;1.80;;
323;SDS011;149;51.094;17.002;2022-09-09T10:08:05;2.00;;;1.90;;
323;SDS011;149;51.094;17.002;2022-09-09T10:16:13;10.20;;;3.10;;
323;SDS011;149;51.094;17.002;2022-09-09T10:19:06;2.83;;;1.90;;
323;SDS011;149;51.094;17.002;2022-09-09T10:22:02;4.73;;;1.50;;
323;SDS011;149;51.094;17.002;2022-09-09T10:32:49;3.50;;;1.50;;
323;SDS011;149;51.094;17.002;2022-09-09T10:35:34;3.60;;;1.57;;
323;SDS011;149;51.094;17.002;2022-09-09T10:51:39;3.00;;;2.20;;
323;SDS011;149;51.094;17.002;2022-09-09T10:54:36;4.83;;;1.83;;
323;SDS011;149;51.094;17.002;2022-09-09T10:57:36;3.43;;;2.03;;
323;SDS011;149;51.094;17.002;2022-09-09T11:02:44;6.93;;;1.87;;
323;SDS011;149;51.094;17.002;2022-09-09T11:05:20;3.33;;;1.07;;
323;SDS011;149;51.094;17.002;2022-09-09T11:07:55;4.00;;;1.40;;
323;SDS011;149;51.094;17.002;2022-09-09T11:10:37;2.33;;;1.90;;
323;SDS011;149;51.094;17.002;2022-09-09T11:13:20;1.90;;;1.13;;
323;SDS011;149;51.094;17.002;2022-09-09T11:18:48;4.40;;;1.70;;
323;SDS011;149;51.094;17.002;2022-09-09T11:21:22;1.43;;;1.20;;
323;SDS011;149;51.094;17.002;2022-09-09T11:24:09;2.53;;;1.50;;
323;SDS011;149;51.094;17.002;2022-09-09T11:26:57;3.80;;;2.07;;
323;SDS011;149;51.094;17.002;2022-09-09T11:41:14;2.90;;;1.97;;
323;SDS011;149;51.094;17.002;2022-09-09T11:43:47;2.30;;;1.80;;
323;SDS011;149;51.094;17.002;2022-09-09T11:46:21;1.73;;;1.60;;
323;SDS011;149;51.094;17.002;2022-09-09T11:49:01;2.67;;;1.83;;
323;SDS011;149;51.094;17.002;2022-09-09T11:51:30;5.00;;;1.77;;
323;SDS011;149;51.094;17.002;2022-09-09T11:53:59;3.20;;;1.70;;
323;SDS011;149;51.094;17.002;2022-09-09T11:56:50;2.07;;;1.60;;
323;SDS011;149;51.094;17.002;2022-09-09T11:59:21;2.20;;;1.90;;
323;SDS011;149;51.094;17.002;2022-09-09T12:04:42;2.50;;;2.00;;
323;SDS011;149;51.094;17.002;2022-09-09T12:07:25;4.87;;;2.83;;
323;SDS011;149;51.094;17.002;2022-09-09T12:10:04;3.33;;;1.43;;
323;SDS011;149;51.094;17.002;2022-09-09T12:12:35;3.90;;;2.40;;
323;SDS011;149;51.094;17.002;2022-09-09T12:17:55;2.00;;;1.80;;
323;SDS011;149;51.094;17.002;2022-09-09T12:20:36;2.33;;;1.77;;
323;SDS011;149;51.094;17.002;2022-09-09T12:28:44;2.10;;;1.43;;
323;SDS011;149;51.094;17.002;2022-09-09T12:31:22;2.33;;;1.40;;
323;SDS011;149;51.094;17.002;2022-09-09T12:34:02;4.53;;;1.90;;
323;SDS011;149;51.094;17.002;2022-09-09T12:36:37;3.53;;;1.60;;
323;SDS011;149;51.094;17.002;2022-09-09T12:39:21;1.90;;;1.80;;
323;SDS011;149;51.094;17.002;2022-09-09T12:42:17;1.90;;;1.80;;
323;SDS011;149;51.094;17.002;2022-09-09T12:44:59;1.87;;;1.67;;
323;SDS011;149;51.094;17.002;2022-09-09T12:50:15;2.60;;;1.97;;
323;SDS011;149;51.094;17.002;2022-09-09T12:52:45;6.30;;;1.67;;
323;SDS011;149;51.094;17.002;2022-09-09T12:55:32;2.13;;;1.70;;
323;SDS011;149;51.094;17.002;2022-09-09T12:58:04;1.63;;;1.50;;
323;SDS011;149;51.094;17.002;2022-09-09T13:00:33;1.60;;;1.50;;
323;SDS011;149;51.094;17.002;2022-09-09T13:03:03;2.03;;;1.80;;
323;SDS011;149;51.094;17.002;2022-09-09T13:05:42;2.73;;;1.63;;
323;SDS011;149;51.094;17.002;2022-09-09T13:08:11;2.23;;;1.80;;
323;SDS011;149;51.094;17.002;2022-09-09T13:10:41;2.47;;;1.90;;
323;SDS011;149;51.094;17.002;2022-09-09T13:13:40;8.73;;;2.13;;
323;SDS011;149;51.094;17.002;2022-09-09T13:16:18;3.80;;;1.73;;
323;SDS011;149;51.094;17.002;2022-09-09T13:18:49;1.23;;;1.10;;
323;SDS011;149;51.094;17.002;2022-09-09T13:21:16;2.50;;;1.77;;
323;SDS011;149;51.094;17.002;2022-09-09T13:23:48;1.70;;;1.60;;
323;SDS011;149;51.094;17.002;2022-09-09T13:26:26;2.03;;;1.70;;
323;SDS011;149;51.094;17.002;2022-09-09T13:28:53;1.90;;;1.60;;
323;SDS011;149;51.094;17.002;2022-09-09T13:31:23;2.00;;;1.70;;
323;SDS011;149;51.094;17.002;2022-09-09T13:33:53;1.83;;;1.53;;
323;SDS011;149;51.094;17.002;2022-09-09T13:36:28;4.27;;;2.30;;
323;SDS011;149;51.094;17.002;2022-09-09T13:38:58;2.03;;;1.50;;
323;SDS011;149;51.094;17.002;2022-09-09T13:41:33;3.07;;;1.50;;
323;SDS011;149;51.094;17.002;2022-09-09T13:44:03;2.30;;;2.10;;
323;SDS011;149;51.094;17.002;2022-09-09T13:46:33;1.30;;;1.20;;
323;SDS011;149;51.094;17.002;2022-09-09T13:51:40;2.33;;;1.43;;
323;SDS011;149;51.094;17.002;2022-09-09T13:54:13;2.23;;;1.03;;
323;SDS011;149;51.094;17.002;2022-09-09T13:56:41;1.30;;;1.17;;
323;SDS011;149;51.094;17.002;2022-09-09T13:59:13;2.10;;;1.90;;
323;SDS011;149;51.094;17.002;2022-09-09T14:01:41;2.13;;;1.70;;
323;SDS011;149;51.094;17.002;2022-09-09T14:04:09;1.97;;;1.80;;
323;SDS011;149;51.094;17.002;2022-09-09T14:06:37;2.13;;;1.93;;
323;SDS011;149;51.094;17.002;2022-09-09T14:09:14;2.67;;;1.87;;
323;SDS011;149;51.094;17.002;2022-09-09T14:11:43;3.97;;;1.50;;
323;SDS011;149;51.094;17.002;2022-09-09T14:14:11;1.77;;;1.30;;
323;SDS011;149;51.094;17.002;2022-09-09T14:16:42;1.40;;;1.30;;
323;SDS011;149;51.094;17.002;2022-09-09T14:19:10;5.70;;;1.70;;
323;SDS011;149;51.094;17.002;2022-09-09T14:21:38;2.00;;;1.43;;
323;SDS011;149;51.094;17.002;2022-09-09T14:24:05;1.97;;;1.63;;
323;SDS011;149;51.094;17.002;2022-09-09T14:26:33;3.90;;;1.50;;
323;SDS011;149;51.094;17.002;2022-09-09T14:29:00;2.83;;;2.10;;
323;SDS011;149;51.094;17.002;2022-09-09T14:31:28;1.90;;;1.80;;
323;SDS011;149;51.094;17.002;2022-09-09T14:33:58;3.33;;;2.17;;
323;SDS011;149;51.094;17.002;2022-09-09T14:36:27;1.93;;;1.83;;
323;SDS011;149;51.094;17.002;2022-09-09T14:38:55;4.63;;;1.93;;
323;SDS011;149;51.094;17.002;2022-09-09T14:41:23;2.17;;;1.67;;
323;SDS011;149;51.094;17.002;2022-09-09T14:43:51;1.83;;;1.50;;
323;SDS011;149;51.094;17.002;2022-09-09T14:46:20;1.70;;;1.60;;
323;SDS011;149;51.094;17.002;2022-09-09T14:48:47;1.93;;;1.60;;
323;SDS011;149;51.094;17.002;2022-09-09T14:51:22;2.10;;;1.90;;
323;SDS011;149;51.094;17.002;2022-09-09T14:53:51;2.20;;;1.80;;
323;SDS011;149;51.094;17.002;2022-09-09T14:56:22;1.90;;;1.70;;
323;SDS011;149;51.094;17.002;2022-09-09T14:58:52;1.80;;;1.70;;
323;SDS011;149;51.094;17.002;2022-09-09T15:01:23;2.00;;;1.80;;
323;SDS011;149;51.094;17.002;2022-09-09T15:03:58;1.67;;;1.57;;
323;SDS011;149;51.094;17.002;2022-09-09T15:06:28;3.10;;;2.10;;
323;SDS011;149;51.094;17.002;2022-09-09T15:09:00;2.00;;;1.90;;
323;SDS011;149;51.094;17.002;2022-09-09T15:11:29;1.80;;;1.70;;
323;SDS011;149;51.094;17.002;2022-09-09T15:14:00;2.60;;;1.70;;
323;SDS011;149;51.094;17.002;2022-09-09T15:16:32;3.70;;;2.27;;
323;SDS011;149;51.094;17.002;2022-09-09T15:19:03;4.73;;;1.80;;
323;SDS011;149;51.094;17.002;2022-09-09T15:21:31;3.33;;;1.90;;
323;SDS011;149;51.094;17.002;2022-09-09T15:24:01;2.10;;;2.00;;
323;SDS011;149;51.094;17.002;2022-09-09T15:26:28;1.50;;;1.40;;
323;SDS011;149;51.094;17.002;2022-09-09T15:28:56;3.03;;;2.00;;
323;SDS011;149;51.094;17.002;2022-09-09T15:31:26;2.90;;;2.03;;
323;SDS011;149;51.094;17.002;2022-09-09T15:33:56;4.10;;;2.60;;
323;SDS011;149;51.094;17.002;2022-09-09T15:39:08;3.33;;;1.80;;
323;SDS011;149;51.094;17.002;2022-09-09T15:41:39;2.70;;;2.27;;
323;SDS011;149;51.094;17.002;2022-09-09T15:44:07;2.10;;;1.90;;
323;SDS011;149;51.094;17.002;2022-09-09T15:46:46;2.13;;;2.00;;
323;SDS011;149;51.094;17.002;2022-09-09T15:51:45;4.57;;;1.67;;
323;SDS011;149;51.094;17.002;2022-09-09T15:54:14;2.23;;;2.03;;
323;SDS011;149;51.094;17.002;2022-09-09T15:56:44;2.17;;;1.63;;
323;SDS011;149;51.094;17.002;2022-09-09T15:59:14;2.33;;;1.90;;
323;SDS011;149;51.094;17.002;2022-09-09T16:01:43;3.07;;;2.13;;
323;SDS011;149;51.094;17.002;2022-09-09T16:04:11;2.43;;;2.20;;
323;SDS011;149;51.094;17.002;2022-09-09T16:06:38;3.93;;;2.23;;
323;SDS011;149;51.094;17.002;2022-09-09T16:09:11;2.47;;;2.10;;
323;SDS011;149;51.094;17.002;2022-09-09T16:11:38;4.60;;;2.20;;
323;SDS011;149;51.094;17.002;2022-09-09T16:14:08;2.47;;;2.20;;
323;SDS011;149;51.094;17.002;2022-09-09T16:16:35;2.83;;;2.37;;
323;SDS011;149;51.094;17.002;2022-09-09T16:19:03;2.10;;;1.90;;
323;SDS011;149;51.094;17.002;2022-09-09T16:21:37;2.90;;;2.63;;
323;SDS011;149;51.094;17.002;2022-09-09T16:24:06;1.97;;;1.70;;
323;SDS011;149;51.094;17.002;2022-09-09T16:26:35;4.10;;;2.50;;
323;SDS011;149;51.094;17.002;2022-09-09T16:29:04;3.83;;;2.20;;
323;SDS011;149;51.094;17.002;2022-09-09T16:31:33;2.07;;;1.97;;
323;SDS011;149;51.094;17.002;2022-09-09T16:34:03;4.40;;;2.43;;
323;SDS011;149;51.094;17.002;2022-09-09T16:36:31;2.57;;;2.17;;
323;SDS011;149;51.094;17.002;2022-09-09T16:39:04;2.33;;;1.90;;
323;SDS011;149;51.094;17.002;2022-09-09T16:41:33;2.70;;;1.60;;
323;SDS011;149;51.094;17.002;2022-09-09T16:44:03;4.20;;;2.30;;
323;SDS011;149;51.094;17.002;2022-09-09T16:46:32;2.60;;;2.20;;
323;SDS011;149;51.094;17.002;2022-09-09T16:49:06;3.10;;;2.00;;
323;SDS011;149;51.094;17.002;2022-09-09T16:51:41;2.70;;;2.10;;
323;SDS011;149;51.094;17.002;2022-09-09T16:54:19;7.07;;;5.77;;
323;SDS011;149;51.094;17.002;2022-09-09T16:56:48;8.27;;;6.23;;
323;SDS011;149;51.094;17.002;2022-09-09T16:59:16;2.37;;;2.17;;
323;SDS011;149;51.094;17.002;2022-09-09T17:01:46;3.57;;;3.27;;
323;SDS011;149;51.094;17.002;2022-09-09T17:04:18;2.13;;;2.00;;
323;SDS011;149;51.094;17.002;2022-09-09T17:06:48;2.60;;;2.33;;
323;SDS011;149;51.094;17.002;2022-09-09T17:09:16;3.87;;;2.23;;
323;SDS011;149;51.094;17.002;2022-09-09T17:11:43;8.10;;;3.00;;
323;SDS011;149;51.094;17.002;2022-09-09T17:14:13;2.40;;;2.20;;
323;SDS011;149;51.094;17.002;2022-09-09T17:16:43;4.70;;;1.83;;
323;SDS011;149;51.094;17.002;2022-09-09T17:19:10;3.80;;;2.43;;
323;SDS011;149;51.094;17.002;2022-09-09T17:21:39;2.97;;;2.70;;
323;SDS011;149;51.094;17.002;2022-09-09T17:24:29;2.97;;;2.40;;
323;SDS011;149;51.094;17.002;2022-09-09T17:26:56;4.23;;;2.20;;
323;SDS011;149;51.094;17.002;2022-09-09T17:29:23;4.90;;;2.70;;
323;SDS011;149;51.094;17.002;2022-09-09T17:31:53;4.20;;;2.60;;
323;SDS011;149;51.094;17.002;2022-09-09T17:34:21;3.73;;;2.63;;
323;SDS011;149;51.094;17.002;2022-09-09T17:36:48;5.93;;;2.60;;